Time;durP1;ratioP1;P1;durP2;ratioP2;P2;SDS_P1;SDS_P2;PMS_P1;PMS_P2;Temp;Humidity;BMP_temperature;BMP_pressure;BME280_temperature;BME280_humidity;BME280_pressure;Samples;Min_cycle;Max_cycle;Signal;HPM_P1;HPM_P2
2022/01/16 00:00:40;;;;;;;1.08;0.85;;;;;;;;;;5003532;28;20583;-86
2022/01/16 00:05:57;;;;;;;0.40;0.40;;;;;;;;;;5003409;28;20072;-93
2022/01/16 00:08:24;;;;;;;2.17;1.97;;;;;;;;;;5008994;28;20072;-92
2022/01/16 00:10:50;;;;;;;0.70;0.70;;;;;;;;;;5009901;28;20077;-95
2022/01/16 00:13:16;;;;;;;0.30;0.30;;;;;;;;;;4994891;28;20189;-94
2022/01/16 00:15:44;;;;;;;0.47;0.47;;;;;;;;;;4998774;28;20035;-94
2022/01/16 00:18:21;;;;;;;3.47;1.55;;;;;;;;;;5005061;28;20069;-92
2022/01/16 00:20:48;;;;;;;0.73;0.73;;;;;;;;;;5013240;28;20025;-92
2022/01/16 00:23:22;;;;;;;1.08;0.82;;;;;;;;;;5011525;28;20033;-92
2022/01/16 00:25:49;;;;;;;2.58;0.98;;;;;;;;;;5011165;28;20108;-93
2022/01/16 00:28:15;;;;;;;0.75;0.70;;;;;;;;;;5007441;28;20101;-94
2022/01/16 00:30:41;;;;;;;0.25;0.25;;;;;;;;;;5007582;28;20461;-94
2022/01/16 00:33:07;;;;;;;2.15;0.80;;;;;;;;;;4985292;28;20062;-92
2022/01/16 00:35:33;;;;;;;1.13;1.13;;;;;;;;;;5009581;28;20065;-93
2022/01/16 00:37:59;;;;;;;0.60;0.60;;;;;;;;;;5009591;28;20052;-93
2022/01/16 00:40:25;;;;;;;0.43;0.43;;;;;;;;;;5010375;28;20028;-93
2022/01/16 00:42:52;;;;;;;1.07;0.97;;;;;;;;;;5008383;28;20273;-93
2022/01/16 00:45:18;;;;;;;0.63;0.63;;;;;;;;;;5008945;28;20411;-93
2022/01/16 00:47:44;;;;;;;1.17;0.73;;;;;;;;;;5009364;28;20021;-92
2022/01/16 00:50:11;;;;;;;0.68;0.68;;;;;;;;;;5008726;28;20046;-94
2022/01/16 00:52:37;;;;;;;1.38;1.27;;;;;;;;;;5008260;28;20571;-94
2022/01/16 00:55:04;;;;;;;1.30;1.20;;;;;;;;;;5009318;28;20030;-93
2022/01/16 00:57:30;;;;;;;0.68;0.68;;;;;;;;;;5008610;28;20037;-91
2022/01/16 00:59:56;;;;;;;0.20;0.20;;;;;;;;;;5008093;28;20048;-90
2022/01/16 01:02:23;;;;;;;0.77;0.77;;;;;;;;;;5004717;28;20038;-90
2022/01/16 01:04:50;;;;;;;1.95;0.88;;;;;;;;;;5003729;28;20044;-91
2022/01/16 01:07:16;;;;;;;0.40;0.40;;;;;;;;;;5005379;28;20053;-91
2022/01/16 01:09:42;;;;;;;0.43;0.43;;;;;;;;;;5006565;28;20116;-91
2022/01/16 01:12:09;;;;;;;2.47;2.07;;;;;;;;;;5013510;28;20072;-91
2022/01/16 01:15:03;;;;;;;0.90;0.90;;;;;;;;;;5013729;28;20050;-91
2022/01/16 01:17:34;;;;;;;1.35;0.80;;;;;;;;;;5013759;28;20076;-91
2022/01/16 01:20:00;;;;;;;0.75;0.60;;;;;;;;;;5006256;28;20037;-91
2022/01/16 01:22:26;;;;;;;0.73;0.73;;;;;;;;;;5007049;28;20034;-91
2022/01/16 01:24:52;;;;;;;0.90;0.90;;;;;;;;;;5007927;28;20100;-91
2022/01/16 01:27:26;;;;;;;1.23;1.17;;;;;;;;;;5005030;28;20034;-90
2022/01/16 01:30:00;;;;;;;0.52;0.52;;;;;;;;;;5005232;28;20134;-91
2022/01/16 01:32:26;;;;;;;1.55;1.48;;;;;;;;;;5002268;28;20026;-91
2022/01/16 01:34:52;;;;;;;0.87;0.83;;;;;;;;;;5006164;28;20030;-91
2022/01/16 01:37:18;;;;;;;3.73;1.47;;;;;;;;;;5006252;28;20068;-93
2022/01/16 01:39:44;;;;;;;2.08;0.98;;;;;;;;;;5008587;28;20563;-94
2022/01/16 01:42:12;;;;;;;1.58;1.48;;;;;;;;;;5006222;28;20061;-92
2022/01/16 01:52:56;;;;;;;0.70;0.70;;;;;;;;;;5008501;28;20033;-93
2022/01/16 01:55:23;;;;;;;0.43;0.43;;;;;;;;;;5008747;28;20026;-94
2022/01/16 01:57:49;;;;;;;0.73;0.73;;;;;;;;;;5009172;28;20545;-92
2022/01/16 02:00:17;;;;;;;1.47;1.37;;;;;;;;;;5008642;28;20026;-94
2022/01/16 02:05:25;;;;;;;1.55;0.65;;;;;;;;;;5001424;28;20081;-91
2022/01/16 02:07:51;;;;;;;1.60;1.53;;;;;;;;;;5008825;28;20033;-92
2022/01/16 02:10:17;;;;;;;0.98;0.98;;;;;;;;;;5010398;28;20029;-92
2022/01/16 02:12:45;;;;;;;2.53;1.98;;;;;;;;;;5010447;28;20047;-92
2022/01/16 02:28:00;;;;;;;0.35;0.35;;;;;;;;;;4910669;29;20088;-92
2022/01/16 02:34:51;;;;;;;0.40;0.40;;;;;;;;;;4910444;29;20126;-91
2022/01/16 02:37:19;;;;;;;0.30;0.30;;;;;;;;;;4909358;29;20511;-93
2022/01/16 02:39:49;;;;;;;1.20;1.20;;;;;;;;;;4913972;29;20472;-91
2022/01/16 02:42:16;;;;;;;4.95;1.27;;;;;;;;;;4910969;29;20032;-90
2022/01/16 02:44:47;;;;;;;0.30;0.30;;;;;;;;;;4914198;29;20028;-89
2022/01/16 02:47:17;;;;;;;6.07;2.05;;;;;;;;;;4899589;29;20083;-91
2022/01/16 02:49:44;;;;;;;1.30;1.27;;;;;;;;;;4914503;29;20105;-90
2022/01/16 02:52:12;;;;;;;0.45;0.32;;;;;;;;;;4910574;29;20036;-91
2022/01/16 02:54:39;;;;;;;1.10;1.08;;;;;;;;;;4952926;28;20134;-90
2022/01/16 02:57:07;;;;;;;2.75;1.20;;;;;;;;;;5010740;28;20099;-93
2022/01/16 02:59:34;;;;;;;1.33;1.30;;;;;;;;;;5010888;28;20065;-93
2022/01/16 03:02:01;;;;;;;0.70;0.70;;;;;;;;;;5010821;28;20034;-93
2022/01/16 03:04:28;;;;;;;7.28;1.48;;;;;;;;;;5009782;28;20034;-92
2022/01/16 03:06:54;;;;;;;0.40;0.40;;;;;;;;;;5006509;28;20041;-90
2022/01/16 03:09:21;;;;;;;4.25;1.52;;;;;;;;;;5000494;28;20069;-88
2022/01/16 03:11:49;;;;;;;1.15;1.08;;;;;;;;;;4995996;28;20038;-89
2022/01/16 03:14:19;;;;;;;0.77;0.77;;;;;;;;;;5001702;28;20052;-89
2022/01/16 03:16:49;;;;;;;2.50;1.33;;;;;;;;;;5003108;28;20061;-89
2022/01/16 03:22:03;;;;;;;1.45;0.95;;;;;;;;;;5003114;28;20032;-88
2022/01/16 03:24:32;;;;;;;2.60;2.40;;;;;;;;;;4998407;28;20449;-90
2022/01/16 03:27:03;;;;;;;1.58;1.42;;;;;;;;;;5006387;28;20034;-91
2022/01/16 03:29:29;;;;;;;0.60;0.60;;;;;;;;;;5006734;28;20034;-93
2022/01/16 03:31:57;;;;;;;1.08;1.08;;;;;;;;;;5007871;28;20160;-92
2022/01/16 03:34:23;;;;;;;1.35;1.23;;;;;;;;;;5006814;28;20034;-90
2022/01/16 03:36:49;;;;;;;0.85;0.85;;;;;;;;;;4997750;28;20038;-91
2022/01/16 03:39:15;;;;;;;0.60;0.60;;;;;;;;;;5007229;28;20061;-92
2022/01/16 03:41:41;;;;;;;0.13;0.13;;;;;;;;;;5005936;28;20030;-90
2022/01/16 03:44:08;;;;;;;0.37;0.37;;;;;;;;;;5004694;28;20022;-90
2022/01/16 03:46:35;;;;;;;0.77;0.77;;;;;;;;;;5003288;28;20285;-89
2022/01/16 03:49:05;;;;;;;2.17;2.05;;;;;;;;;;5001665;28;20022;-89
2022/01/16 03:51:31;;;;;;;0.98;0.90;;;;;;;;;;5001895;28;20037;-90
2022/01/16 03:53:58;;;;;;;0.20;0.20;;;;;;;;;;5002108;28;20053;-86
2022/01/16 03:56:24;;;;;;;0.40;0.40;;;;;;;;;;5005376;28;20033;-90
2022/01/16 03:58:50;;;;;;;0.73;0.73;;;;;;;;;;5005640;28;20034;-88
2022/01/16 04:01:16;;;;;;;0.32;0.32;;;;;;;;;;5001357;28;20042;-88
2022/01/16 04:03:42;;;;;;;0.93;0.93;;;;;;;;;;5001633;28;20038;-87
2022/01/16 04:06:08;;;;;;;1.70;1.47;;;;;;;;;;5002369;28;20037;-88
2022/01/16 04:08:34;;;;;;;1.27;1.17;;;;;;;;;;5001327;28;20030;-87
2022/01/16 04:11:00;;;;;;;0.70;0.70;;;;;;;;;;4997775;28;20605;-85
2022/01/16 04:13:27;;;;;;;5.10;1.20;;;;;;;;;;4998851;28;20030;-85
2022/01/16 04:15:53;;;;;;;1.08;1.05;;;;;;;;;;5002635;28;20501;-85
2022/01/16 04:18:19;;;;;;;2.50;2.20;;;;;;;;;;5003339;28;20025;-85
2022/01/16 04:20:45;;;;;;;0.30;0.30;;;;;;;;;;5003263;28;20444;-85
2022/01/16 04:23:11;;;;;;;7.03;1.90;;;;;;;;;;5003121;28;20632;-86
2022/01/16 04:25:37;;;;;;;0.20;0.20;;;;;;;;;;5004101;28;20277;-86
2022/01/16 04:28:04;;;;;;;2.63;1.17;;;;;;;;;;5004283;28;20029;-86
2022/01/16 04:30:30;;;;;;;0.43;0.43;;;;;;;;;;4999848;28;20452;-88
2022/01/16 04:32:56;;;;;;;2.50;1.60;;;;;;;;;;5000323;28;20030;-88
2022/01/16 04:35:22;;;;;;;0.53;0.53;;;;;;;;;;5002899;28;20048;-91
2022/01/16 04:37:48;;;;;;;0.32;0.32;;;;;;;;;;5005523;28;20087;-90
2022/01/16 04:40:15;;;;;;;0.50;0.50;;;;;;;;;;5003560;28;20034;-90
2022/01/16 04:45:26;;;;;;;1.10;1.02;;;;;;;;;;5004480;28;20087;-89
2022/01/16 04:47:53;;;;;;;0.70;0.70;;;;;;;;;;5004055;28;20036;-89
2022/01/16 04:50:21;;;;;;;0.50;0.50;;;;;;;;;;4993540;28;20093;-88
2022/01/16 04:52:48;;;;;;;3.03;0.88;;;;;;;;;;5004074;28;20030;-87
2022/01/16 04:55:14;;;;;;;0.60;0.60;;;;;;;;;;5003608;28;20037;-88
2022/01/16 04:57:41;;;;;;;0.50;0.50;;;;;;;;;;5003491;28;20536;-86
2022/01/16 05:00:09;;;;;;;1.63;1.52;;;;;;;;;;5003054;28;20283;-86
2022/01/16 05:02:35;;;;;;;4.20;1.17;;;;;;;;;;5001220;28;20096;-87
2022/01/16 05:05:01;;;;;;;1.20;1.10;;;;;;;;;;5001707;28;20410;-84
2022/01/16 05:07:27;;;;;;;0.80;0.80;;;;;;;;;;4992166;28;20026;-84
2022/01/16 05:09:53;;;;;;;1.80;1.70;;;;;;;;;;5000811;28;20456;-84
2022/01/16 05:12:27;;;;;;;2.13;1.17;;;;;;;;;;5001703;28;20026;-85
2022/01/16 05:17:38;;;;;;;1.48;1.38;;;;;;;;;;4998064;28;20038;-85
2022/01/16 05:20:04;;;;;;;0.30;0.30;;;;;;;;;;5003049;28;20030;-85
2022/01/16 05:22:30;;;;;;;11.20;2.03;;;;;;;;;;5001028;28;20355;-85
2022/01/16 05:24:56;;;;;;;0.83;0.83;;;;;;;;;;5000973;28;20033;-87
2022/01/16 05:27:23;;;;;;;0.57;0.57;;;;;;;;;;5004253;28;20030;-89
2022/01/16 05:29:49;;;;;;;0.60;0.60;;;;;;;;;;5003773;28;20596;-86
2022/01/16 05:32:16;;;;;;;0.55;0.55;;;;;;;;;;5004690;28;20104;-90
2022/01/16 05:34:42;;;;;;;0.55;0.55;;;;;;;;;;4994285;28;20025;-91
2022/01/16 05:37:09;;;;;;;1.52;1.42;;;;;;;;;;5007074;28;20045;-90
2022/01/16 05:39:35;;;;;;;2.33;1.60;;;;;;;;;;5009841;28;20079;-90
2022/01/16 05:42:01;;;;;;;0.10;0.10;;;;;;;;;;5007537;28;20037;-85
2022/01/16 05:44:27;;;;;;;0.73;0.70;;;;;;;;;;5006555;28;20344;-86
2022/01/16 05:46:53;;;;;;;2.00;1.27;;;;;;;;;;5007480;28;20113;-87
2022/01/16 05:49:19;;;;;;;3.17;1.90;;;;;;;;;;5006605;28;20109;-86
2022/01/16 05:51:45;;;;;;;0.77;0.77;;;;;;;;;;5005725;28;20425;-85
2022/01/16 05:54:11;;;;;;;0.90;0.90;;;;;;;;;;5002134;28;20048;-88
2022/01/16 05:56:37;;;;;;;0.43;0.43;;;;;;;;;;5010512;28;20519;-91
2022/01/16 05:59:03;;;;;;;0.85;0.85;;;;;;;;;;5010957;28;20261;-90
2022/01/16 06:01:29;;;;;;;0.73;0.73;;;;;;;;;;5006069;28;20029;-90
2022/01/16 06:03:56;;;;;;;1.30;1.30;;;;;;;;;;5005655;28;20030;-85
2022/01/16 06:06:22;;;;;;;3.28;2.30;;;;;;;;;;5004105;28;20273;-85
2022/01/16 06:08:48;;;;;;;1.23;1.13;;;;;;;;;;5002362;28;20468;-86
2022/01/16 06:11:14;;;;;;;1.25;0.93;;;;;;;;;;5002539;28;20133;-86
2022/01/16 06:13:41;;;;;;;3.83;2.10;;;;;;;;;;4995018;28;20068;-85
2022/01/16 06:16:08;;;;;;;1.75;1.65;;;;;;;;;;5001815;28;20037;-86
2022/01/16 06:18:33;;;;;;;;;;;;;;;;;;5003299;28;20041;-88
2022/01/16 06:20:59;;;;;;;0.20;0.20;;;;;;;;;;5003721;28;19913;-87
2022/01/16 06:23:26;;;;;;;1.40;1.20;;;;;;;;;;5007297;28;20042;-85
2022/01/16 06:25:54;;;;;;;0.30;0.30;;;;;;;;;;5007366;28;20038;-86
2022/01/16 06:28:23;;;;;;;2.85;1.00;;;;;;;;;;5006877;28;20022;-87
2022/01/16 06:30:50;;;;;;;2.83;1.25;;;;;;;;;;5013933;28;20066;-90
2022/01/16 06:33:16;;;;;;;3.03;0.82;;;;;;;;;;5011070;28;20026;-91
2022/01/16 06:35:42;;;;;;;0.82;0.82;;;;;;;;;;5011227;28;20124;-87
2022/01/16 06:38:08;;;;;;;0.65;0.60;;;;;;;;;;5005369;28;20056;-86
2022/01/16 06:40:34;;;;;;;0.20;0.20;;;;;;;;;;5004163;28;20041;-85
2022/01/16 06:43:00;;;;;;;0.50;0.50;;;;;;;;;;5001980;28;20623;-85
2022/01/16 06:45:28;;;;;;;0.38;0.38;;;;;;;;;;5003666;28;20325;-86
2022/01/16 06:47:54;;;;;;;1.98;1.48;;;;;;;;;;5004482;28;20045;-87
2022/01/16 06:50:20;;;;;;;0.67;0.63;;;;;;;;;;5005791;28;20053;-87
2022/01/16 06:52:46;;;;;;;1.23;1.13;;;;;;;;;;5005852;28;20501;-88
2022/01/16 06:55:12;;;;;;;1.33;1.27;;;;;;;;;;5005725;28;20332;-90
2022/01/16 06:57:38;;;;;;;1.40;1.30;;;;;;;;;;5005084;28;20484;-86
2022/01/16 07:00:09;;;;;;;3.83;1.53;;;;;;;;;;5006347;28;20292;-85
2022/01/16 07:02:35;;;;;;;0.32;0.32;;;;;;;;;;5006426;28;20026;-87
2022/01/16 07:05:02;;;;;;;0.43;0.43;;;;;;;;;;5005486;28;20046;-86
2022/01/16 07:07:28;;;;;;;0.68;0.68;;;;;;;;;;5006917;28;20033;-88
2022/01/16 07:09:54;;;;;;;2.70;1.80;;;;;;;;;;5008225;28;20089;-92
2022/01/16 07:12:20;;;;;;;1.55;1.45;;;;;;;;;;5009122;28;20068;-91
2022/01/16 07:14:48;;;;;;;4.87;2.50;;;;;;;;;;5008385;28;20249;-93
2022/01/16 07:17:14;;;;;;;0.70;0.70;;;;;;;;;;5006755;28;20275;-90
2022/01/16 07:19:40;;;;;;;0.27;0.27;;;;;;;;;;5009104;28;20022;-92
2022/01/16 07:22:06;;;;;;;0.47;0.47;;;;;;;;;;5009237;28;20273;-93
2022/01/16 07:24:32;;;;;;;1.20;1.20;;;;;;;;;;5008786;28;20285;-92
2022/01/16 07:27:00;;;;;;;0.30;0.30;;;;;;;;;;5009354;28;20117;-93
2022/01/16 07:29:27;;;;;;;0.55;0.55;;;;;;;;;;5007885;28;20030;-93
2022/01/16 07:31:53;;;;;;;0.20;0.20;;;;;;;;;;5009924;28;20654;-93
2022/01/16 07:34:19;;;;;;;0.37;0.37;;;;;;;;;;5009208;28;20061;-93
2022/01/16 07:36:45;;;;;;;0.60;0.60;;;;;;;;;;5010252;28;20313;-93
2022/01/16 07:39:11;;;;;;;0.40;0.40;;;;;;;;;;5009290;28;20038;-92
2022/01/16 07:41:37;;;;;;;1.53;1.50;;;;;;;;;;5005070;28;20304;-89
2022/01/16 07:44:03;;;;;;;1.67;1.58;;;;;;;;;;5006410;28;20099;-88
2022/01/16 07:46:30;;;;;;;0.40;0.40;;;;;;;;;;5006354;28;20106;-93
2022/01/16 07:48:56;;;;;;;0.30;0.30;;;;;;;;;;5007293;28;20033;-92
2022/01/16 07:51:22;;;;;;;0.77;0.77;;;;;;;;;;5008359;28;20100;-93
2022/01/16 07:53:48;;;;;;;1.10;1.00;;;;;;;;;;5006301;28;20281;-84
2022/01/16 07:56:14;;;;;;;0.37;0.37;;;;;;;;;;5005150;28;20093;-89
2022/01/16 07:58:42;;;;;;;3.20;1.50;;;;;;;;;;5000974;28;20269;-92
2022/01/16 08:01:08;;;;;;;0.40;0.40;;;;;;;;;;5005464;28;20511;-91
2022/01/16 08:03:34;;;;;;;1.75;1.27;;;;;;;;;;5022999;28;20525;-91
2022/01/16 08:06:00;;;;;;;1.37;1.27;;;;;;;;;;5005630;28;20033;-92
2022/01/16 08:08:26;;;;;;;0.98;0.98;;;;;;;;;;5006898;28;20026;-92
2022/01/16 08:10:52;;;;;;;1.15;0.80;;;;;;;;;;5006079;28;20092;-92
2022/01/16 08:13:18;;;;;;;0.63;0.63;;;;;;;;;;5007086;28;20052;-91
2022/01/16 08:15:44;;;;;;;0.50;0.50;;;;;;;;;;5001276;28;20061;-91
2022/01/16 08:18:11;;;;;;;0.40;0.40;;;;;;;;;;5004513;28;20101;-90
2022/01/16 08:20:37;;;;;;;0.28;0.28;;;;;;;;;;5003677;28;20430;-90
2022/01/16 08:23:03;;;;;;;0.60;0.60;;;;;;;;;;5002858;28;20026;-90
2022/01/16 08:25:29;;;;;;;0.77;0.77;;;;;;;;;;5002630;28;20482;-89
2022/01/16 08:27:55;;;;;;;0.47;0.47;;;;;;;;;;4996822;28;20034;-85
2022/01/16 08:30:21;;;;;;;5.90;2.67;;;;;;;;;;4998716;28;20080;-86
2022/01/16 08:32:47;;;;;;;0.70;0.70;;;;;;;;;;4996501;28;20057;-84
2022/01/16 08:35:13;;;;;;;0.17;0.17;;;;;;;;;;4997768;28;20018;-83
2022/01/16 08:37:39;;;;;;;1.03;0.93;;;;;;;;;;5000151;28;20041;-83
2022/01/16 08:40:06;;;;;;;0.35;0.35;;;;;;;;;;4998764;28;20533;-83
2022/01/16 08:42:32;;;;;;;0.68;0.68;;;;;;;;;;4997381;28;20137;-82
2022/01/16 08:44:58;;;;;;;0.28;0.28;;;;;;;;;;4992123;28;20155;-83
2022/01/16 08:47:26;;;;;;;1.67;1.57;;;;;;;;;;4993365;28;20045;-90
2022/01/16 08:49:52;;;;;;;0.60;0.47;;;;;;;;;;4999134;28;20033;-89
2022/01/16 08:52:21;;;;;;;2.17;1.20;;;;;;;;;;5003717;28;20038;-91
2022/01/16 08:54:47;;;;;;;1.17;1.08;;;;;;;;;;5001247;28;20021;-80
2022/01/16 08:57:13;;;;;;;0.93;0.93;;;;;;;;;;4998701;28;20037;-92
2022/01/16 08:59:39;;;;;;;1.63;1.52;;;;;;;;;;4999597;28;20029;-91
2022/01/16 09:02:05;;;;;;;2.30;1.23;;;;;;;;;;5002997;28;20029;-88
2022/01/16 09:04:31;;;;;;;1.38;1.08;;;;;;;;;;5001063;28;20033;-88
2022/01/16 09:06:58;;;;;;;3.53;0.85;;;;;;;;;;4999939;28;20041;-87
2022/01/16 09:09:24;;;;;;;0.93;0.93;;;;;;;;;;4999793;28;20088;-87
2022/01/16 09:11:50;;;;;;;0.28;0.28;;;;;;;;;;4996428;28;20297;-87
2022/01/16 09:14:16;;;;;;;0.40;0.40;;;;;;;;;;5002490;28;20028;-91
2022/01/16 09:16:42;;;;;;;0.93;0.93;;;;;;;;;;5005879;28;20030;-86
2022/01/16 09:19:08;;;;;;;1.08;1.00;;;;;;;;;;5005166;28;20056;-88
2022/01/16 09:21:34;;;;;;;1.17;1.17;;;;;;;;;;4999297;28;20124;-92
2022/01/16 09:24:00;;;;;;;2.28;1.83;;;;;;;;;;5002744;28;20033;-87
2022/01/16 09:26:27;;;;;;;2.83;1.80;;;;;;;;;;4999131;28;20568;-88
2022/01/16 09:28:53;;;;;;;0.70;0.70;;;;;;;;;;5004879;28;20555;-88
2022/01/16 09:31:20;;;;;;;0.40;0.40;;;;;;;;;;5001483;28;20046;-88
2022/01/16 09:33:46;;;;;;;0.40;0.40;;;;;;;;;;5001345;28;20030;-85
2022/01/16 09:36:12;;;;;;;4.57;1.10;;;;;;;;;;5000768;28;20332;-88
2022/01/16 09:38:39;;;;;;;1.70;0.95;;;;;;;;;;5002924;28;20034;-87
2022/01/16 09:41:05;;;;;;;2.47;1.77;;;;;;;;;;5004963;28;20038;-90
2022/01/16 09:43:35;;;;;;;1.23;1.13;;;;;;;;;;4991876;28;20899;-83
2022/01/16 09:46:02;;;;;;;0.47;0.47;;;;;;;;;;5000051;28;20081;-83
2022/01/16 09:48:28;;;;;;;1.70;1.60;;;;;;;;;;5001847;28;20033;-82
2022/01/16 09:50:54;;;;;;;0.87;0.87;;;;;;;;;;5001777;28;20050;-87
2022/01/16 09:53:21;;;;;;;2.15;1.33;;;;;;;;;;4996495;28;20317;-86
2022/01/16 09:55:47;;;;;;;2.72;2.42;;;;;;;;;;5000357;28;20037;-85
2022/01/16 09:58:13;;;;;;;1.50;1.30;;;;;;;;;;4996612;28;20587;-85
2022/01/16 10:00:39;;;;;;;1.27;1.17;;;;;;;;;;5000974;28;20116;-85
2022/01/16 10:03:05;;;;;;;0.40;0.40;;;;;;;;;;4998680;28;20034;-86
2022/01/16 10:05:31;;;;;;;1.50;1.40;;;;;;;;;;5000677;28;20040;-85
2022/01/16 10:07:59;;;;;;;1.13;0.70;;;;;;;;;;5002743;28;20292;-87
2022/01/16 10:10:34;;;;;;;1.70;1.60;;;;;;;;;;4999737;28;20042;-88
2022/01/16 10:13:07;;;;;;;0.93;0.82;;;;;;;;;;4994525;28;20088;-86
2022/01/16 10:15:33;;;;;;;2.40;1.25;;;;;;;;;;4997091;28;20029;-86
2022/01/16 10:18:00;;;;;;;0.47;0.47;;;;;;;;;;5000911;28;20036;-86
2022/01/16 10:20:26;;;;;;;;;;;;;;;;;;4994832;28;20117;-86
2022/01/16 10:22:52;;;;;;;0.80;0.80;;;;;;;;;;5001441;28;19912;-86
2022/01/16 10:25:35;;;;;;;1.17;1.08;;;;;;;;;;5000549;28;20038;-86
2022/01/16 10:28:03;;;;;;;1.00;0.95;;;;;;;;;;5000283;28;20817;-87
2022/01/16 10:30:46;;;;;;;3.63;2.65;;;;;;;;;;4995489;28;20927;-87
2022/01/16 10:33:13;;;;;;;0.38;0.38;;;;;;;;;;4999508;28;20030;-87
2022/01/16 10:35:40;;;;;;;1.13;0.95;;;;;;;;;;5000254;28;20030;-86
2022/01/16 10:38:06;;;;;;;;;;;;;;;;;;5001919;28;20099;-86
2022/01/16 10:40:34;;;;;;;0.10;0.10;;;;;;;;;;4991489;28;21061;-87
2022/01/16 10:43:05;;;;;;;1.17;1.08;;;;;;;;;;5000281;28;20497;-86
2022/01/16 10:45:32;;;;;;;0.52;0.52;;;;;;;;;;4999251;28;20116;-86
2022/01/16 10:47:59;;;;;;;1.85;1.75;;;;;;;;;;5000990;28;20501;-85
2022/01/16 10:50:45;;;;;;;1.20;1.13;;;;;;;;;;4997939;28;20417;-86
2022/01/16 10:53:19;;;;;;;0.68;0.60;;;;;;;;;;4999685;28;20030;-86
2022/01/16 10:55:49;;;;;;;15.32;1.55;;;;;;;;;;4998681;28;20544;-86
2022/01/16 10:58:19;;;;;;;0.88;0.80;;;;;;;;;;4999264;28;20041;-86
2022/01/16 11:01:00;;;;;;;1.95;0.68;;;;;;;;;;4998892;28;20026;-86
2022/01/16 11:03:27;;;;;;;1.65;0.93;;;;;;;;;;5001586;28;20026;-87
2022/01/16 11:05:53;;;;;;;1.58;1.50;;;;;;;;;;5003064;28;20042;-87
2022/01/16 11:08:21;;;;;;;0.30;0.30;;;;;;;;;;4996509;28;20429;-86
2022/01/16 11:10:49;;;;;;;0.75;0.73;;;;;;;;;;4998812;28;20042;-87
2022/01/16 11:13:19;;;;;;;1.00;0.75;;;;;;;;;;4995661;28;20072;-86
2022/01/16 11:15:49;;;;;;;2.13;1.23;;;;;;;;;;4994312;28;20329;-86
2022/01/16 11:18:16;;;;;;;1.85;1.38;;;;;;;;;;4993703;28;20556;-86
2022/01/16 11:20:51;;;;;;;3.78;1.25;;;;;;;;;;4997970;28;20028;-87
2022/01/16 11:23:30;;;;;;;1.92;1.83;;;;;;;;;;5000014;28;20029;-87
2022/01/16 11:26:04;;;;;;;0.75;0.75;;;;;;;;;;5001221;28;20057;-86
2022/01/16 11:28:30;;;;;;;0.80;0.80;;;;;;;;;;4994121;28;20508;-87
2022/01/16 11:30:58;;;;;;;2.40;1.38;;;;;;;;;;4998637;28;20049;-87
2022/01/16 11:33:25;;;;;;;0.88;0.73;;;;;;;;;;5000791;28;20033;-87
2022/01/16 11:35:51;;;;;;;;;;;;;;;;;;5000960;28;20033;-87
2022/01/16 11:38:19;;;;;;;2.45;0.52;;;;;;;;;;5000479;28;19924;-86
2022/01/16 11:40:46;;;;;;;2.25;2.05;;;;;;;;;;4999300;28;20026;-88
2022/01/16 11:43:20;;;;;;;0.65;0.65;;;;;;;;;;4999509;28;20030;-88
2022/01/16 11:45:49;;;;;;;3.13;2.45;;;;;;;;;;4999166;28;20141;-87
2022/01/16 11:48:35;;;;;;;1.88;1.00;;;;;;;;;;4997783;28;20029;-85
2022/01/16 11:51:01;;;;;;;0.95;0.88;;;;;;;;;;4998016;28;20544;-86
2022/01/16 11:53:47;;;;;;;0.47;0.47;;;;;;;;;;5000452;28;20056;-87
2022/01/16 11:56:32;;;;;;;8.98;2.33;;;;;;;;;;4994889;28;20042;-86
2022/01/16 11:59:13;;;;;;;2.05;1.42;;;;;;;;;;4995130;28;20451;-86
2022/01/16 12:01:59;;;;;;;0.60;0.60;;;;;;;;;;4997217;28;20026;-86
2022/01/16 12:04:31;;;;;;;0.38;0.38;;;;;;;;;;4999291;28;20029;-88
2022/01/16 12:07:05;;;;;;;0.52;0.52;;;;;;;;;;5001382;28;20026;-86
2022/01/16 12:09:50;;;;;;;4.03;1.58;;;;;;;;;;4996131;28;20053;-85
2022/01/16 12:12:16;;;;;;;7.80;1.60;;;;;;;;;;5002310;28;20638;-86
2022/01/16 12:15:02;;;;;;;3.17;2.00;;;;;;;;;;5001760;28;20273;-86
2022/01/16 12:20:15;;;;;;;3.20;1.00;;;;;;;;;;4996626;28;20029;-87
2022/01/16 12:22:43;;;;;;;2.05;1.85;;;;;;;;;;4990799;28;20034;-86
2022/01/16 12:25:29;;;;;;;2.85;1.33;;;;;;;;;;4998272;28;20030;-86
2022/01/16 12:27:55;;;;;;;;;;;;;;;;;;4990306;28;20049;-86
2022/01/16 12:30:24;;;;;;;0.90;0.90;;;;;;;;;;4998354;28;19925;-85
2022/01/16 12:32:50;;;;;;;3.70;2.20;;;;;;;;;;5001137;28;20073;-85
2022/01/16 12:35:36;;;;;;;0.90;0.87;;;;;;;;;;4998496;28;20041;-85
2022/01/16 12:38:06;;;;;;;0.80;0.80;;;;;;;;;;4996196;28;20130;-87
2022/01/16 12:40:32;;;;;;;1.98;1.75;;;;;;;;;;4998311;28;20519;-88
2022/01/16 12:43:03;;;;;;;0.45;0.45;;;;;;;;;;4995181;28;20022;-86
2022/01/16 12:45:30;;;;;;;0.52;0.52;;;;;;;;;;4999414;28;20514;-87
2022/01/16 12:47:57;;;;;;;1.33;1.23;;;;;;;;;;4998721;28;20046;-86
2022/01/16 12:50:23;;;;;;;13.57;1.67;;;;;;;;;;4995529;28;20038;-89
2022/01/16 12:52:49;;;;;;;1.42;1.13;;;;;;;;;;5001911;28;20029;-87
2022/01/16 12:55:16;;;;;;;2.58;1.65;;;;;;;;;;5002143;28;20065;-88
2022/01/16 12:57:42;;;;;;;2.38;2.13;;;;;;;;;;5000564;28;20038;-88
2022/01/16 13:00:12;;;;;;;1.30;1.23;;;;;;;;;;4998836;28;20551;-89
2022/01/16 13:02:38;;;;;;;0.88;0.80;;;;;;;;;;5002015;28;20041;-89
2022/01/16 13:05:05;;;;;;;3.23;2.37;;;;;;;;;;5002048;28;20077;-88
2022/01/16 13:07:32;;;;;;;1.63;1.27;;;;;;;;;;4998508;28;20372;-89
2022/01/16 13:09:58;;;;;;;0.77;0.77;;;;;;;;;;4994557;28;20038;-89
2022/01/16 13:12:24;;;;;;;6.65;2.75;;;;;;;;;;5001508;28;20055;-87
2022/01/16 13:14:50;;;;;;;1.55;1.10;;;;;;;;;;5000902;28;20088;-88
2022/01/16 13:17:17;;;;;;;1.67;1.33;;;;;;;;;;4999290;28;20386;-89
2022/01/16 13:19:52;;;;;;;0.98;0.98;;;;;;;;;;4994672;28;20029;-86
2022/01/16 13:22:20;;;;;;;0.70;0.70;;;;;;;;;;5000756;28;20065;-85
2022/01/16 13:24:51;;;;;;;1.60;1.52;;;;;;;;;;5000621;28;20026;-84
2022/01/16 13:27:18;;;;;;;0.57;0.57;;;;;;;;;;4999536;28;20509;-85
2022/01/16 13:29:46;;;;;;;0.63;0.63;;;;;;;;;;4997235;28;20026;-83
2022/01/16 13:32:14;;;;;;;3.15;1.60;;;;;;;;;;5012817;28;20038;-82
2022/01/16 13:34:54;;;;;;;1.80;1.67;;;;;;;;;;4998054;28;20037;-82
2022/01/16 13:37:26;;;;;;;3.90;1.67;;;;;;;;;;4994680;28;20037;-83
2022/01/16 13:40:04;;;;;;;1.98;1.88;;;;;;;;;;4995194;28;20854;-83
2022/01/16 13:42:42;;;;;;;3.60;3.30;;;;;;;;;;4993252;28;20478;-83
2022/01/16 13:45:14;;;;;;;18.02;2.35;;;;;;;;;;4998917;28;20033;-82
2022/01/16 13:47:40;;;;;;;2.28;2.10;;;;;;;;;;4999108;28;20034;-81
2022/01/16 13:50:15;;;;;;;2.63;1.50;;;;;;;;;;4999191;28;20030;-85
2022/01/16 13:52:50;;;;;;;2.08;1.10;;;;;;;;;;4997080;28;20273;-83
2022/01/16 13:55:16;;;;;;;8.73;3.30;;;;;;;;;;4996794;28;20670;-86
2022/01/16 13:57:42;;;;;;;2.37;1.40;;;;;;;;;;5000606;28;20061;-88
2022/01/16 14:00:09;;;;;;;8.73;6.00;;;;;;;;;;5001652;28;20057;-84
2022/01/16 14:02:35;;;;;;;;;;;;;;;;;;5002058;28;20511;-85
2022/01/16 14:05:02;;;;;;;1.33;1.25;;;;;;;;;;5002318;28;20035;-85
2022/01/16 14:07:28;;;;;;;;;;;;;;;;;;5001487;28;20053;-85
2022/01/16 14:09:55;;;;;;;2.42;2.25;;;;;;;;;;4998965;28;20015;-83
2022/01/16 14:12:21;;;;;;;1.50;1.40;;;;;;;;;;5004657;28;20034;-83
2022/01/16 14:14:49;;;;;;;0.65;0.65;;;;;;;;;;5004734;28;20429;-84
2022/01/16 14:22:22;;;;;;;0.70;0.52;;;;;;;;;;5003498;28;20045;-84
2022/01/16 14:24:48;;;;;;;2.80;1.80;;;;;;;;;;5003976;28;20112;-83
2022/01/16 14:27:24;;;;;;;0.75;0.75;;;;;;;;;;5003009;28;20033;-84
2022/01/16 14:29:51;;;;;;;1.55;1.45;;;;;;;;;;5003329;28;20030;-83
2022/01/16 14:32:18;;;;;;;1.38;1.27;;;;;;;;;;4988618;28;20046;-84
2022/01/16 14:34:45;;;;;;;1.23;0.95;;;;;;;;;;5000403;28;20030;-84
2022/01/16 14:37:11;;;;;;;3.60;0.93;;;;;;;;;;5000590;28;20038;-83
2022/01/16 14:39:38;;;;;;;2.25;2.13;;;;;;;;;;5005477;28;20501;-84
2022/01/16 14:42:05;;;;;;;0.77;0.77;;;;;;;;;;5005423;28;20112;-84
2022/01/16 14:44:32;;;;;;;1.90;1.33;;;;;;;;;;5003918;28;20029;-84
2022/01/16 14:46:59;;;;;;;0.80;0.80;;;;;;;;;;5004002;28;20050;-84
2022/01/16 14:49:25;;;;;;;1.00;0.88;;;;;;;;;;5004778;28;20026;-84
2022/01/16 14:51:52;;;;;;;2.42;1.05;;;;;;;;;;5004611;28;20045;-84
2022/01/16 14:54:18;;;;;;;1.40;1.30;;;;;;;;;;5005262;28;20710;-84
2022/01/16 14:56:44;;;;;;;1.90;1.60;;;;;;;;;;5004711;28;20033;-84
2022/01/16 14:59:11;;;;;;;1.85;1.08;;;;;;;;;;5004995;28;20053;-84
2022/01/16 15:01:37;;;;;;;2.33;1.50;;;;;;;;;;5005382;28;20030;-84
2022/01/16 15:04:04;;;;;;;1.08;1.00;;;;;;;;;;5002837;28;20041;-84
2022/01/16 15:06:30;;;;;;;1.97;0.90;;;;;;;;;;5004577;28;20022;-84
2022/01/16 15:09:00;;;;;;;3.92;2.60;;;;;;;;;;5003304;28;20038;-84
2022/01/16 15:11:27;;;;;;;1.30;1.20;;;;;;;;;;5005124;28;20587;-83
2022/01/16 15:13:55;;;;;;;2.50;1.27;;;;;;;;;;5005166;28;20543;-84
2022/01/16 15:16:25;;;;;;;0.73;0.73;;;;;;;;;;4994464;28;20553;-84
2022/01/16 15:18:57;;;;;;;1.38;1.27;;;;;;;;;;5004351;28;20543;-84
2022/01/16 15:21:39;;;;;;;2.28;1.10;;;;;;;;;;5005098;28;20136;-84
2022/01/16 15:24:06;;;;;;;0.90;0.63;;;;;;;;;;5004786;28;20978;-84
2022/01/16 15:26:32;;;;;;;1.38;1.27;;;;;;;;;;5003306;28;20126;-84
2022/01/16 15:28:58;;;;;;;5.60;2.00;;;;;;;;;;4989662;28;20039;-84
2022/01/16 15:31:25;;;;;;;0.70;0.70;;;;;;;;;;5003025;28;20133;-85
2022/01/16 15:33:51;;;;;;;4.40;0.70;;;;;;;;;;5001492;28;20559;-84
2022/01/16 15:36:17;;;;;;;5.07;1.83;;;;;;;;;;5002982;28;20033;-84